• Join FlightAware (Why Join?)
  • Login
  • US Flag 
03:20PM EDT


 

Airport Tracker/Info


-or-


 

Live Flight TrackerFlight Track Log ✈ N53NW ✈ 25-Aug-2013 ✈ KPWK - KBIV

Flight Track Log - Related Links

Times and Time Zones

All times are in EDT time to prevent confusion due to time zone crossing. See the N53NW flight status page for this flight to view local times or setup timezone preferences in your user account.

Time Position Orientation Groundspeed Altitude Reporting Facility
EDT Latitude Longitude Course Direction KTS MPH feet Rate Location/Type
02:07PM 42.1000 -87.8500 31° Northeast 253 291 2,600  Level Chicago TRACON
02:08PM 42.1792 -87.7867 31° Northeast 247 284 5,700 2,820 Climbing Chicago Center
02:10PM 42.2086 -87.6750 70° East 266 306 9,700 2,520 Climbing Chicago Center
02:11PM 42.2225 -87.5678 80° East 282 325 11,000 600 Climbing Chicago Center
02:12PM 42.2361 -87.4506 81° East 305 351 11,000  Level Chicago Center
02:13PM 42.2500 -87.3339 81° East 314 361 11,000  Level Chicago Center
02:14PM 42.2617 -87.2186 82° East 314 361 11,000  Level Chicago Center
02:15PM 42.2781 -87.0811 81° East 311 358 11,000  Level Chicago Center
02:16PM 42.3208 -86.9814 60° Northeast 312 359 11,000  Level Chicago Center
02:17PM 42.3681 -86.8856 56° Northeast 309 356 11,000 -180 Level Chicago Center
02:18PM 42.4153 -86.7872 57° Northeast 310 357 10,700 -540 Descending Chicago Center
02:19PM 42.4653 -86.6878 56° Northeast 317 365 9,900 -900 Descending Chicago Center
02:20PM 42.5139 -86.5864 57° Northeast 323 372 8,900 -1,260 Descending Chicago Center
02:21PM 42.5708 -86.4689 57° Northeast 313 360 7,300 -1,740 Descending Chicago Center
02:22PM 42.6131 -86.3817 57° Northeast 287 330 5,400 -1,560 Descending Chicago Center
02:23PM 42.6519 -86.2975 58° Northeast 269 310 4,100 -720 Descending Chicago Center
02:24PM 42.6694 -86.1986 76° East 269 310 4,000 -180 Descending Chicago Center
02:25PM 42.6869 -86.1139 74° East 248 285 3,800 -240 Descending Chicago Center
02:27PM 42.7333 -86.1000 48° Northeast  Level FlightAware Approximate
02:34PM 42.7428 -86.1078 48° Northeast  Level Estimated